Time;durP1;ratioP1;P1;durP2;ratioP2;P2;SDS_P1;SDS_P2;PMS_P1;PMS_P2;Temp;Humidity;BMP_temperature;BMP_pressure;BME280_temperature;BME280_humidity;BME280_pressure;Samples;Min_cycle;Max_cycle;Signal;HPM_P1;HPM_P2
2023/06/01 00:01:40;;;;;;;;;8.00;8.00;;;;;20.61;47.56;101389.44;4977196;28;45540;-79
2023/06/01 00:04:07;;;;;;;;;10.67;9.67;;;;;20.36;47.99;101354.69;4977816;28;45314;-79
2023/06/01 00:06:32;;;;;;;;;9.67;9.67;;;;;20.47;48.71;101404.72;4983963;28;46703;-79
2023/06/01 00:08:58;;;;;;;;;8.67;8.67;;;;;20.45;48.73;101392.44;4967656;28;45350;-78
2023/06/01 00:11:25;;;;;;;;;9.33;8.00;;;;;20.46;48.70;101396.81;4991759;28;45825;-79
2023/06/01 00:13:51;;;;;;;;;9.67;9.67;;;;;20.34;49.20;101386.47;4979482;28;45429;-80
2023/06/01 00:16:16;;;;;;;;;9.67;9.00;;;;;20.30;49.01;101379.78;4962374;28;47817;-79
2023/06/01 00:18:43;;;;;;;;;13.00;11.67;;;;;20.24;49.15;101371.63;4961040;28;45510;-80
2023/06/01 00:21:08;;;;;;;;;10.33;10.33;;;;;20.21;49.50;101374.69;4980171;28;45413;-79
2023/06/01 00:23:34;;;;;;;;;10.00;8.00;;;;;20.28;49.34;101378.31;4978583;28;45466;-79
2023/06/01 00:26:00;;;;;;;;;13.00;11.33;;;;;19.81;49.16;101305.94;4961116;28;48689;-76
2023/06/01 00:28:25;;;;;;;;;9.67;8.00;;;;;20.25;49.42;101374.13;4979265;28;45314;-78
2023/06/01 00:30:52;;;;;;;;;7.33;7.33;;;;;20.27;49.62;101382.03;4978056;28;45606;-79
2023/06/01 00:33:18;;;;;;;;;9.33;8.00;;;;;20.13;50.01;101369.41;4964280;28;45300;-80
2023/06/01 00:35:43;;;;;;;;;9.67;9.67;;;;;20.17;50.41;101381.50;4984109;28;46896;-78
2023/06/01 00:38:09;;;;;;;;;12.00;10.67;;;;;19.72;50.87;101324.13;4981839;28;45317;-79
2023/06/01 00:40:34;;;;;;;;;12.00;9.33;;;;;19.58;51.27;101320.41;4963843;28;45425;-79
2023/06/01 00:43:00;;;;;;;;;10.67;9.67;;;;;19.77;51.61;101359.47;4978849;28;45271;-78
2023/06/01 00:45:25;;;;;;;;;9.33;9.33;;;;;19.80;51.88;101363.63;4977606;28;47606;-80
2023/06/01 00:47:51;;;;;;;;;9.50;9.50;;;;;19.64;51.68;101354.75;4977925;28;45591;-79
2023/06/01 00:50:16;;;;;;;;;6.00;6.00;;;;;19.68;51.92;101356.03;4978310;28;45447;-78
2023/06/01 00:52:42;;;;;;;;;13.67;10.00;;;;;19.88;51.98;101385.13;4971418;28;45366;-80
2023/06/01 00:55:10;;;;;;;;;8.00;8.00;;;;;19.71;52.67;101369.16;4978771;28;46032;-81
2023/06/01 00:57:36;;;;;;;;;14.67;13.33;;;;;19.63;52.69;101368.44;4965361;28;45810;-79
2023/06/01 01:00:08;;;;;;;;;9.67;9.67;;;;;19.70;52.84;101374.72;4977803;28;45483;-79
2023/06/01 01:02:37;;;;;;;;;11.67;10.67;;;;;19.47;53.65;101339.75;4984612;28;45318;-79
2023/06/01 01:05:11;;;;;;;;;12.33;12.33;;;;;19.63;53.64;101380.06;4962188;28;46593;-81
2023/06/01 01:07:42;;;;;;;;;10.33;10.00;;;;;19.69;53.35;101395.47;4960450;28;45545;-78
2023/06/01 01:10:19;;;;;;;;;13.67;11.33;;;;;19.57;54.10;101385.34;4963378;28;45529;-78
2023/06/01 01:12:58;;;;;;;;;12.33;11.33;;;;;19.55;54.15;101382.84;4970639;28;45249;-79
2023/06/01 01:15:29;;;;;;;;;10.33;10.33;;;;;18.58;54.38;101233.78;4975798;28;48456;-78
2023/06/01 01:18:02;;;;;;;;;13.33;13.33;;;;;19.41;55.01;101383.63;4961257;28;45552;-77
2023/06/01 01:20:33;;;;;;;;;14.33;13.67;;;;;19.39;55.54;101393.78;4976822;28;45516;-77
2023/06/01 01:23:17;;;;;;;;;12.33;10.33;;;;;19.41;54.91;101389.88;4960274;28;45625;-79
2023/06/01 01:25:51;;;;;;;;;13.33;11.00;;;;;19.42;55.19;101393.41;4956582;28;47754;-79
2023/06/01 01:28:38;;;;;;;;;13.67;12.00;;;;;19.49;55.03;101390.81;4960560;28;45544;-79
2023/06/01 01:31:05;;;;;;;;;13.33;12.33;;;;;19.42;55.36;101382.63;4982837;28;45662;-79
2023/06/01 01:33:32;;;;;;;;;16.67;15.00;;;;;19.44;56.00;101402.16;4977510;28;45523;-77
2023/06/01 01:39:29;;;;;;;;;16.67;16.00;;;;;19.15;56.91;101387.63;4969071;28;45584;-79
2023/06/01 01:41:55;;;;;;;;;15.33;11.67;;;;;18.98;57.07;101364.56;4978693;28;45528;-79
2023/06/01 01:44:21;;;;;;;;;15.00;13.00;;;;;19.10;57.62;101398.13;4980637;28;45477;-77
2023/06/01 01:46:57;;;;;;;;;18.00;13.33;;;;;19.02;57.80;101392.84;4975674;28;45631;-80
2023/06/01 01:49:33;;;;;;;;;15.67;14.00;;;;;19.10;57.49;101394.59;4959827;28;46074;-81
2023/06/01 01:52:12;;;;;;;;;15.00;13.67;;;;;19.17;57.79;101389.31;4982359;28;45406;-76
2023/06/01 01:54:42;;;;;;;;;15.33;15.33;;;;;18.97;58.08;101370.97;4984879;28;45511;-78
2023/06/01 01:57:08;;;;;;;;;18.33;16.00;;;;;19.02;58.67;101384.75;4979017;28;45978;-78
2023/06/01 01:59:35;;;;;;;;;17.00;14.67;;;;;18.98;58.42;101391.50;4964216;28;46001;-78
2023/06/01 02:02:01;;;;;;;;;17.33;17.33;;;;;19.03;58.58;101389.13;4962292;28;45498;-79
2023/06/01 02:04:26;;;;;;;;;21.50;18.50;;;;;19.00;58.89;101399.41;4959256;28;45262;-77
2023/06/01 02:06:52;;;;;;;;;19.33;15.67;;;;;18.89;59.33;101392.63;4975464;28;45302;-77
2023/06/01 02:09:17;;;;;;;;;17.33;13.67;;;;;17.39;59.66;101158.28;4962901;28;45646;-79
2023/06/01 02:11:43;;;;;;;;;17.67;17.67;;;;;18.77;59.14;101383.28;4976719;28;45471;-79
2023/06/01 02:14:09;;;;;;;;;18.67;18.67;;;;;18.27;59.90;101308.47;4977218;28;45309;-80
2023/06/01 02:16:34;;;;;;;;;22.00;19.67;;;;;18.78;59.87;101388.50;4958880;28;47988;-79
2023/06/01 02:18:59;;;;;;;;;21.00;16.67;;;;;18.71;60.32;101384.88;4976504;28;45531;-80
2023/06/01 02:21:26;;;;;;;;;29.00;27.33;;;;;18.20;60.62;101317.25;4976664;28;45586;-81
2023/06/01 02:23:51;;;;;;;;;21.33;19.67;;;;;18.36;61.05;101342.38;4980598;28;46202;-78
2023/06/01 02:26:18;;;;;;;;;24.33;21.67;;;;;18.23;61.18;101332.22;4969946;28;46879;-77
2023/06/01 02:28:43;;;;;;;;;17.00;17.00;;;;;18.12;60.98;101314.63;4981018;28;45695;-81
2023/06/01 02:31:09;;;;;;;;;26.00;25.00;;;;;18.32;61.62;101373.34;4978709;28;45587;-78
2023/06/01 02:33:35;;;;;;;;;27.33;25.67;;;;;18.27;61.85;101362.31;4980149;28;45327;-77
2023/06/01 02:36:01;;;;;;;;;28.00;25.50;;;;;18.33;61.88;101386.63;4980615;28;46517;-78
2023/06/01 02:38:27;;;;;;;;;21.00;21.00;;;;;18.14;62.05;101363.72;4980276;28;45411;-77
2023/06/01 02:40:53;;;;;;;;;28.00;26.00;;;;;18.12;61.99;101367.59;4959674;28;45523;-80
2023/06/01 02:43:18;;;;;;;;;23.67;21.00;;;;;18.26;62.10;101396.47;4964704;28;45580;-82
2023/06/01 02:45:44;;;;;;;;;29.00;25.00;;;;;18.27;62.19;101390.06;4974396;28;47257;-79
2023/06/01 02:48:09;;;;;;;;;29.00;25.67;;;;;18.24;62.10;101382.34;4961136;28;45633;-80
2023/06/01 02:50:35;;;;;;;;;33.00;30.33;;;;;18.18;62.56;101383.03;4979313;28;45398;-79
2023/06/01 02:53:01;;;;;;;;;29.33;27.00;;;;;18.10;62.31;101364.25;4957406;28;45566;-80
2023/06/01 02:55:27;;;;;;;;;45.00;38.00;;;;;18.15;62.36;101378.00;4963176;28;48444;-80
2023/06/01 02:57:52;;;;;;;;;47.67;40.33;;;;;18.09;62.52;101367.97;4975469;28;45545;-79
2023/06/01 03:00:17;;;;;;;;;35.67;32.67;;;;;18.13;62.61;101383.56;4962567;28;45514;-80
2023/06/01 03:02:47;;;;;;;;;30.00;27.00;;;;;18.13;62.52;101380.03;4964077;28;45457;-80
2023/06/01 03:05:16;;;;;;;;;28.67;26.33;;;;;18.03;62.81;101363.31;4956457;28;48140;-79
2023/06/01 03:07:42;;;;;;;;;30.00;25.33;;;;;17.94;63.16;101375.94;4982165;28;45340;-79
2023/06/01 03:10:08;;;;;;;;;35.67;31.00;;;;;17.93;63.34;101379.66;4970227;28;45512;-80
2023/06/01 03:12:34;;;;;;;;;32.33;28.33;;;;;17.88;63.82;101382.03;4979801;28;45284;-80
2023/06/01 03:14:59;;;;;;;;;28.00;25.00;;;;;17.64;63.36;101346.16;4961632;28;48679;-79
2023/06/01 03:17:25;;;;;;;;;27.33;25.33;;;;;17.86;63.75;101374.16;4964771;28;45432;-79
2023/06/01 03:19:50;;;;;;;;;30.00;25.67;;;;;17.90;63.57;101380.84;4980556;28;45325;-79
2023/06/01 03:22:16;;;;;;;;;26.33;23.67;;;;;17.79;63.81;101383.09;4966546;28;45405;-79
2023/06/01 03:24:41;;;;;;;;;26.67;23.33;;;;;17.58;64.57;101360.28;4980372;28;45661;-81
2023/06/01 03:27:08;;;;;;;;;29.00;28.00;;;;;17.65;64.09;101373.88;4963306;28;45363;-78
2023/06/01 03:29:33;;;;;;;;;26.00;26.00;;;;;17.68;64.24;101381.63;4979643;28;45346;-79
2023/06/01 03:31:59;;;;;;;;;31.33;27.67;;;;;17.68;64.14;101378.94;4976295;28;45454;-78
2023/06/01 03:34:27;;;;;;;;;35.67;32.67;;;;;17.63;64.32;101366.00;4965234;28;48332;-80
2023/06/01 03:36:52;;;;;;;;;27.33;24.33;;;;;17.76;64.13;101383.44;4981454;28;45528;-79
2023/06/01 03:39:18;;;;;;;;;27.67;26.00;;;;;17.41;64.16;101330.94;4995779;28;45395;-79
2023/06/01 03:41:44;;;;;;;;;30.67;30.67;;;;;17.39;64.18;101332.97;4962312;28;45651;-79
2023/06/01 03:44:10;;;;;;;;;36.67;31.33;;;;;17.64;64.34;101372.22;4959825;28;45750;-80
2023/06/01 03:46:36;;;;;;;;;29.33;25.33;;;;;17.66;64.20;101383.63;4975304;28;45413;-80
2023/06/01 03:49:01;;;;;;;;;28.67;26.00;;;;;17.41;64.49;101353.28;4981293;28;51381;-78
2023/06/01 03:51:27;;;;;;;;;31.00;26.33;;;;;17.58;64.79;101379.09;4985664;28;45239;-79
2023/06/01 03:53:52;;;;;;;;;40.33;32.00;;;;;17.52;64.68;101378.97;4995375;28;46894;-80
2023/06/01 03:56:19;;;;;;;;;28.33;28.33;;;;;17.43;64.94;101369.28;4968424;28;45421;-79
2023/06/01 03:58:44;;;;;;;;;32.33;29.00;;;;;17.58;64.79;101394.41;4976993;28;45518;-79
2023/06/01 04:01:11;;;;;;;;;26.00;23.33;;;;;17.54;64.20;101379.63;4979129;28;45455;-78
2023/06/01 04:03:37;;;;;;;;;37.33;28.67;;;;;17.47;64.67;101362.53;4979058;28;46478;-82
2023/06/01 04:06:04;;;;;;;;;32.33;27.67;;;;;17.65;64.39;101398.09;4984811;28;45424;-81
2023/06/01 04:08:30;;;;;;;;;33.67;30.00;;;;;17.60;64.46;101378.94;4965246;28;45568;-80
2023/06/01 04:10:55;;;;;;;;;28.33;25.67;;;;;17.75;64.06;101398.75;4962296;28;45643;-80
2023/06/01 04:13:21;;;;;;;;;33.00;28.33;;;;;17.71;64.25;101381.28;4963426;28;47516;-79
2023/06/01 04:15:46;;;;;;;;;28.67;28.67;;;;;17.73;64.08;101398.06;4977541;28;45535;-80
2023/06/01 04:18:12;;;;;;;;;29.00;26.67;;;;;17.78;63.97;101398.38;4982446;28;46182;-80
2023/06/01 04:20:37;;;;;;;;;31.00;27.00;;;;;17.69;63.78;101379.78;4984095;28;45477;-81
2023/06/01 04:23:02;;;;;;;;;39.33;33.33;;;;;17.74;63.77;101393.53;4961863;28;47754;-81
2023/06/01 04:25:28;;;;;;;;;28.67;25.33;;;;;17.78;63.91;101393.00;4961309;28;45556;-81
2023/06/01 04:27:54;;;;;;;;;27.00;24.33;;;;;17.77;64.05;101404.78;4961075;28;45378;-81
2023/06/01 04:30:20;;;;;;;;;32.33;30.00;;;;;17.63;64.11;101389.38;4982884;28;45288;-79
2023/06/01 04:32:47;;;;;;;;;35.67;30.00;;;;;17.80;63.79;101423.25;4965912;28;47918;-81
2023/06/01 04:35:14;;;;;;;;;28.33;25.33;;;;;17.71;63.69;101391.19;4983524;28;45400;-80
2023/06/01 04:37:41;;;;;;;;;36.00;31.33;;;;;17.90;63.46;101417.69;4978881;28;45323;-80
2023/06/01 04:40:09;;;;;;;;;34.33;29.67;;;;;17.88;63.68;101409.78;4955866;28;45580;-80
2023/06/01 04:42:36;;;;;;;;;40.67;30.67;;;;;17.69;63.91;101394.06;4973483;28;45738;-80
2023/06/01 04:45:07;;;;;;;;;40.00;29.00;;;;;17.71;64.25;101408.19;4979838;28;45438;-80
2023/06/01 04:47:37;;;;;;;;;30.00;25.67;;;;;17.67;64.51;101406.81;4980547;28;45308;-80
2023/06/01 04:50:08;;;;;;;;;32.00;31.67;;;;;17.63;63.91;101397.44;4965028;28;45532;-81
2023/06/01 04:52:41;;;;;;;;;35.00;32.33;;;;;17.62;64.07;101393.91;4969597;28;46913;-81
2023/06/01 04:55:08;;;;;;;;;43.67;35.67;;;;;17.45;64.34;101380.69;4949377;28;45257;-81
2023/06/01 04:57:34;;;;;;;;;40.67;34.33;;;;;17.77;64.01;101428.97;4945234;28;45268;-82
2023/06/01 05:00:00;;;;;;;;;33.00;29.00;;;;;17.81;63.74;101418.72;4965370;28;45326;-79
2023/06/01 05:02:26;;;;;;;;;36.33;31.33;;;;;17.82;63.78;101421.25;4962751;28;47243;-81
2023/06/01 05:04:51;;;;;;;;;37.00;31.67;;;;;17.93;63.52;101426.22;4978530;28;45334;-79
2023/06/01 05:07:17;;;;;;;;;36.67;30.67;;;;;18.01;63.13;101424.50;4958966;28;45580;-77
2023/06/01 05:09:42;;;;;;;;;34.67;30.67;;;;;17.82;63.30;101397.03;4959968;28;45660;-80
2023/06/01 05:12:07;;;;;;;;;37.33;32.67;;;;;17.91;63.49;101425.56;4976139;28;45647;-82
2023/06/01 05:14:34;;;;;;;;;35.67;32.67;;;;;17.68;63.59;101396.94;4981730;28;45458;-78
2023/06/01 05:17:00;;;;;;;;;35.00;31.67;;;;;17.84;63.73;101424.59;4984297;28;45369;-79
2023/06/01 05:19:25;;;;;;;;;34.00;30.00;;;;;17.94;63.70;101424.38;4970713;28;45361;-82
2023/06/01 05:21:50;;;;;;;;;34.00;31.33;;;;;17.74;63.52;101402.44;4961407;28;47758;-82
2023/06/01 05:24:16;;;;;;;;;36.67;32.33;;;;;17.83;63.30;101411.34;4978318;28;45414;-83
2023/06/01 05:26:41;;;;;;;;;19.33;18.67;;;;;17.74;63.35;101394.38;4983368;28;45231;-84
2023/06/01 05:29:07;;;;;;;;;24.50;22.00;;;;;18.05;63.22;101433.91;4985522;28;45577;-85
2023/06/01 05:31:32;;;;;;;;;39.33;35.33;;;;;18.06;63.08;101441.81;4987811;28;45309;-78
2023/06/01 05:33:57;;;;;;;;;29.00;28.00;;;;;18.05;62.97;101437.44;4961205;28;45581;-84
2023/06/01 05:36:23;;;;;;;;;37.33;32.33;;;;;17.98;63.05;101424.84;4958821;28;45609;-80
2023/06/01 05:38:48;;;;;;;;;35.33;31.67;;;;;18.08;62.83;101436.25;4982028;28;45235;-75
2023/06/01 05:41:14;;;;;;;;;40.67;35.33;;;;;18.18;62.64;101436.84;4961344;28;47090;-78
2023/06/01 05:43:39;;;;;;;;;39.33;33.00;;;;;18.12;62.72;101435.72;4964842;28;46088;-75
2023/06/01 05:46:06;;;;;;;;;32.33;29.67;;;;;17.69;63.07;101395.91;4976317;28;45364;-85
2023/06/01 05:48:32;;;;;;;;;35.67;32.00;;;;;17.92;63.40;101432.63;4974476;28;45539;-86
2023/06/01 05:50:57;;;;;;;;;40.67;34.33;;;;;18.02;63.24;101435.13;4959339;28;45348;-81
2023/06/01 05:53:24;;;;;;;;;28.33;27.33;;;;;17.94;62.89;101427.91;4961521;28;45406;-83
2023/06/01 05:55:53;;;;;;;;;39.67;33.00;;;;;18.17;62.98;101440.56;4975680;28;45260;-84
2023/06/01 05:58:18;;;;;;;;;35.33;32.67;;;;;18.55;61.49;101445.03;4973172;28;45422;-80
2023/06/01 06:00:44;;;;;;;;;31.67;30.00;;;;;19.13;60.15;101432.81;4962590;28;45621;-79
2023/06/01 06:03:09;;;;;;;;;37.33;32.33;;;;;19.64;57.76;101386.28;4977740;28;45587;-80
2023/06/01 06:05:35;;;;;;;;;31.00;30.33;;;;;20.20;56.30;101425.16;4984987;28;45281;-80
2023/06/01 06:08:01;;;;;;;;;39.33;32.67;;;;;20.61;55.21;101420.00;4981615;28;45314;-80
2023/06/01 06:10:26;;;;;;;;;33.33;31.33;;;;;21.22;53.29;101431.16;4982332;28;45718;-81
2023/06/01 06:12:52;;;;;;;;;32.67;28.67;;;;;21.79;51.68;101437.31;4981857;28;45436;-85
2023/06/01 06:15:17;;;;;;;;;29.33;27.00;;;;;22.20;50.56;101406.69;4965900;28;45489;-84
2023/06/01 06:17:43;;;;;;;;;35.67;31.00;;;;;22.95;49.17;101438.09;4980707;28;45444;-80
2023/06/01 06:20:09;;;;;;;;;35.00;29.00;;;;;23.51;47.86;101432.19;4961124;28;48588;-76
2023/06/01 06:22:35;;;;;;;;;32.33;29.33;;;;;23.93;46.16;101434.38;4980854;28;45250;-78
2023/06/01 06:25:01;;;;;;;;;38.67;35.00;;;;;24.35;44.81;101434.81;4979874;28;45349;-79
2023/06/01 06:27:26;;;;;;;;;31.00;28.67;;;;;24.61;44.02;101416.66;4954660;28;45458;-80
2023/06/01 06:29:51;;;;;;;;;36.33;31.33;;;;;24.92;42.93;101440.28;4966129;28;47391;-79
2023/06/01 06:32:19;;;;;;;;;40.33;33.00;;;;;24.76;42.70;101354.63;4980570;28;45355;-80
2023/06/01 06:34:44;;;;;;;;;27.00;20.33;;;;;25.47;42.03;101433.94;4963746;28;45514;-81
2023/06/01 06:37:11;;;;;;;;;32.00;29.00;;;;;25.76;41.91;101426.94;4966631;28;45484;-80
2023/06/01 06:39:37;;;;;;;;;28.00;24.00;;;;;26.08;40.23;101424.03;4965594;28;47377;-77
2023/06/01 06:42:05;;;;;;;;;32.00;28.67;;;;;26.37;40.20;101425.94;4964789;28;45321;-79
2023/06/01 06:44:31;;;;;;;;;30.33;27.33;;;;;26.70;39.56;101438.25;4977553;28;45500;-77
2023/06/01 06:46:58;;;;;;;;;34.00;30.67;;;;;27.09;38.70;101430.53;4961791;28;45621;-82
2023/06/01 06:49:24;;;;;;;;;28.33;27.33;;;;;27.27;37.44;101400.38;4979712;28;48475;-80
2023/06/01 06:51:49;;;;;;;;;32.33;26.67;;;;;27.57;36.97;101428.34;4962203;28;46189;-79
2023/06/01 06:54:15;;;;;;;;;28.67;26.00;;;;;27.60;37.33;101402.44;4980589;28;45515;-80
2023/06/01 06:56:40;;;;;;;;;31.67;31.00;;;;;27.46;36.90;101431.09;4960163;28;45437;-81
2023/06/01 06:59:05;;;;;;;;;33.00;28.00;;;;;27.59;37.18;101387.13;4977071;28;45753;-80
2023/06/01 07:01:35;;;;;;;;;35.00;31.00;;;;;28.21;36.50;101424.72;4979292;28;45441;-78
2023/06/01 07:04:00;;;;;;;;;26.33;25.33;;;;;28.59;34.81;101413.97;4958700;28;45525;-80
2023/06/01 07:06:32;;;;;;;;;26.33;24.33;;;;;28.40;35.17;101409.81;4967334;28;45197;-82
2023/06/01 07:08:58;;;;;;;;;28.33;24.67;;;;;28.42;35.16;101400.28;4959196;28;45513;-80
2023/06/01 07:11:24;;;;;;;;;30.00;28.33;;;;;28.73;34.89;101425.44;4959340;28;45456;-80
2023/06/01 07:13:49;;;;;;;;;33.33;28.33;;;;;29.04;34.33;101433.13;4945465;28;45521;-80
2023/06/01 07:16:14;;;;;;;;;27.33;27.33;;;;;28.94;33.94;101426.63;4970020;28;45257;-79
2023/06/01 07:18:40;;;;;;;;;23.00;23.00;;;;;29.11;34.16;101421.97;4961474;28;46565;-79
2023/06/01 07:21:05;;;;;;;;;19.00;18.67;;;;;29.10;33.97;101414.84;4979705;28;45522;-78
2023/06/01 07:23:31;;;;;;;;;28.67;28.67;;;;;28.81;34.11;101407.78;4978344;28;45362;-79
2023/06/01 07:25:57;;;;;;;;;29.00;27.00;;;;;28.90;33.82;101371.56;4981863;28;45500;-79
2023/06/01 07:28:26;;;;;;;;;33.67;28.67;;;;;29.29;33.20;101380.63;4965485;28;46482;-81
2023/06/01 07:30:52;;;;;;;;;28.67;28.67;;;;;29.67;32.87;101390.75;4980062;28;45338;-80
2023/06/01 07:33:17;;;;;;;;;31.00;29.33;;;;;29.97;32.01;101419.59;4957709;28;45450;-80
2023/06/01 07:35:43;;;;;;;;;30.33;25.67;;;;;29.98;32.71;101405.63;4976183;28;46573;-82
2023/06/01 07:38:09;;;;;;;;;27.00;25.00;;;;;29.99;32.19;101390.81;4960295;28;47205;-81
2023/06/01 07:40:34;;;;;;;;;27.33;26.00;;;;;30.52;31.66;101432.28;4967548;28;45284;-80
2023/06/01 07:42:59;;;;;;;;;27.00;27.00;;;;;30.95;31.43;101422.22;4961604;28;45480;-83
2023/06/01 07:45:25;;;;;;;;;25.67;23.33;;;;;31.20;30.42;101427.09;4979281;28;45567;-86
2023/06/01 07:47:51;;;;;;;;;29.33;27.33;;;;;31.18;30.15;101436.44;4962412;28;46655;-84
2023/06/01 07:50:17;;;;;;;;;30.00;26.33;;;;;31.22;29.78;101444.97;4978610;28;45321;-86
2023/06/01 07:52:42;;;;;;;;;18.33;16.00;;;;;31.26;30.44;101432.38;4978660;28;45462;-82
2023/06/01 07:55:10;;;;;;;;;27.67;25.67;;;;;31.73;29.81;101450.78;4978079;28;45647;-83
2023/06/01 07:57:36;;;;;;;;;20.33;20.33;;;;;31.72;29.72;101457.41;4979262;28;46637;-83
2023/06/01 08:00:03;;;;;;;;;24.00;21.67;;;;;31.55;30.07;101434.72;4979651;28;45290;-83
2023/06/01 08:02:28;;;;;;;;;29.00;27.33;;;;;31.62;29.84;101460.03;4968427;28;45533;-83
2023/06/01 08:04:56;;;;;;;;;32.33;29.67;;;;;31.71;29.74;101456.53;4983049;28;45190;-82
2023/06/01 08:07:22;;;;;;;;;25.33;23.00;;;;;31.48;29.72;101455.03;4980694;28;46203;-83
2023/06/01 08:09:47;;;;;;;;;23.33;22.33;;;;;31.08;30.19;101441.84;4964316;28;45750;-84
2023/06/01 08:12:14;;;;;;;;;24.67;23.67;;;;;30.99;30.85;101445.31;4980941;28;45268;-83
2023/06/01 08:14:41;;;;;;;;;24.67;23.00;;;;;30.36;30.73;101368.19;4962025;28;45361;-77
2023/06/01 08:17:06;;;;;;;;;27.00;23.33;;;;;31.00;30.93;101452.47;4976667;28;46482;-77
2023/06/01 08:19:33;;;;;;;;;29.67;26.00;;;;;31.32;30.08;101452.47;4959986;28;46181;-76
2023/06/01 08:21:58;;;;;;;;;27.67;27.67;;;;;30.83;30.48;101430.63;4975898;28;45528;-78
2023/06/01 08:24:24;;;;;;;;;26.33;23.00;;;;;30.79;30.97;101419.34;4982793;28;45231;-81
2023/06/01 08:26:53;;;;;;;;;22.33;22.00;;;;;30.81;30.30;101397.13;4980717;28;47409;-83
2023/06/01 08:29:18;;;;;;;;;23.67;22.00;;;;;31.00;30.41;101444.22;4981515;28;45269;-83
2023/06/01 08:31:44;;;;;;;;;22.00;22.00;;;;;31.20;30.30;101440.84;4982652;28;45367;-84
2023/06/01 08:34:09;;;;;;;;;19.00;19.00;;;;;31.15;30.63;101445.19;4980146;28;45612;-80
2023/06/01 08:36:34;;;;;;;;;27.00;26.00;;;;;31.37;29.83;101455.25;4964542;28;45518;-77
2023/06/01 08:39:18;;;;;;;;;22.33;20.67;;;;;31.27;30.68;101446.94;4976904;28;55771;-78
2023/06/01 08:41:51;;;;;;;;;25.67;25.67;;;;;31.60;29.75;101438.31;4977695;28;45380;-79
2023/06/01 08:44:22;;;;;;;;;20.00;19.67;;;;;31.95;29.81;101443.19;4977289;28;45323;-78
2023/06/01 08:46:47;;;;;;;;;19.00;19.00;;;;;32.19;28.94;101439.94;4976358;28;46493;-77
2023/06/01 08:49:15;;;;;;;;;22.00;22.00;;;;;31.87;28.62;101394.22;4976560;28;45449;-79
2023/06/01 08:51:42;;;;;;;;;20.67;20.67;;;;;31.87;29.48;101354.88;4977575;28;45470;-78
2023/06/01 08:54:09;;;;;;;;;26.00;26.00;;;;;32.37;28.61;101426.53;4978212;28;45423;-79
2023/06/01 08:56:35;;;;;;;;;24.33;23.00;;;;;32.82;28.19;101437.88;4977270;28;46719;-81
2023/06/01 08:59:01;;;;;;;;;27.33;22.67;;;;;32.68;28.11;101399.88;4980112;28;45439;-80
2023/06/01 09:01:27;;;;;;;;;27.33;25.33;;;;;32.99;27.79;101430.16;4977631;28;45469;-79
2023/06/01 09:03:53;;;;;;;;;23.00;23.00;;;;;32.84;27.67;101369.56;4977943;28;45447;-80
2023/06/01 09:06:18;;;;;;;;;22.00;19.00;;;;;33.85;26.45;101407.09;4978056;28;45882;-81
2023/06/01 09:08:44;;;;;;;;;24.67;21.67;;;;;34.16;26.60;101427.03;4977171;28;45401;-80
2023/06/01 09:11:10;;;;;;;;;22.33;22.33;;;;;34.32;25.58;101416.72;4959617;28;45375;-81
2023/06/01 09:13:40;;;;;;;;;22.00;21.00;;;;;34.63;25.78;101367.63;4968018;28;45263;-79
2023/06/01 09:16:06;;;;;;;;;23.67;22.67;;;;;35.10;24.73;101400.09;4959314;28;46780;-79
2023/06/01 09:18:31;;;;;;;;;19.67;19.67;;;;;35.56;23.96;101418.94;4968186;28;45573;-80
2023/06/01 09:21:11;;;;;;;;;22.67;20.00;;;;;35.44;24.27;101405.53;4970808;28;45412;-79
2023/06/01 09:23:37;;;;;;;;;22.67;22.00;;;;;35.69;24.00;101357.38;4971930;28;45195;-78
2023/06/01 09:26:08;;;;;;;;;23.00;20.33;;;;;36.31;23.07;101402.47;4981371;28;45425;-78
2023/06/01 09:28:51;;;;;;;;;27.67;25.67;;;;;36.74;22.87;101407.84;4977117;28;45576;-73
2023/06/01 09:31:38;;;;;;;;;27.33;27.33;;;;;36.69;22.82;101396.88;4977525;28;45434;-78
2023/06/01 09:34:04;;;;;;;;;19.00;17.67;;;;;36.21;23.11;101385.97;4964232;28;45348;-78
2023/06/01 09:36:30;;;;;;;;;18.33;17.67;;;;;36.80;23.21;101393.63;4976577;28;45703;-78
2023/06/01 09:39:07;;;;;;;;;20.67;20.67;;;;;37.49;21.87;101404.81;4965547;28;45481;-79
2023/06/01 09:41:54;;;;;;;;;21.00;21.00;;;;;37.29;21.91;101405.22;4971050;28;45456;-79
2023/06/01 09:44:41;;;;;;;;;21.33;21.33;;;;;38.12;21.45;101387.34;4976202;28;45476;-78
2023/06/01 09:47:14;;;;;;;;;24.67;22.00;;;;;38.12;21.10;101401.22;4962339;28;47861;-77
2023/06/01 09:49:44;;;;;;;;;17.00;14.33;;;;;38.23;21.23;101390.72;4976321;28;45227;-78
2023/06/01 09:52:14;;;;;;;;;19.33;18.67;;;;;38.40;21.27;101401.13;4975579;28;45629;-78
2023/06/01 09:54:43;;;;;;;;;20.00;18.00;;;;;37.57;21.71;101394.94;4979986;28;45361;-79
2023/06/01 09:57:12;;;;;;;;;24.33;21.67;;;;;37.28;22.02;101384.19;4978148;28;46270;-79
2023/06/01 10:00:11;;;;;;;;;19.33;18.00;;;;;37.01;22.21;101394.06;4977663;28;45321;-79
2023/06/01 10:02:40;;;;;;;;;18.67;18.00;;;;;36.56;22.91;101385.44;4958718;28;45494;-81
2023/06/01 10:05:07;;;;;;;;;17.67;17.00;;;;;36.01;23.37;101387.09;4977871;28;45461;-82
2023/06/01 10:07:34;;;;;;;;;16.67;16.67;;;;;35.30;24.75;101369.47;4977789;28;45663;-80
2023/06/01 10:10:02;;;;;;;;;20.00;19.00;;;;;34.54;24.99;101337.06;4975602;28;45717;-80
2023/06/01 10:12:28;;;;;;;;;22.33;19.33;;;;;33.50;25.79;101361.16;4976389;28;45404;-80
2023/06/01 10:14:55;;;;;;;;;22.33;21.00;;;;;32.14;28.24;101355.47;4977042;28;45409;-81
2023/06/01 10:17:21;;;;;;;;;16.67;16.33;;;;;31.57;28.39;101378.38;4966840;28;46147;-80
2023/06/01 10:19:47;;;;;;;;;16.33;15.33;;;;;31.17;29.38;101368.84;4973362;28;46038;-79
2023/06/01 10:22:12;;;;;;;;;20.00;18.33;;;;;30.85;30.39;101388.13;4981148;28;45549;-80
2023/06/01 10:24:42;;;;;;;;;17.67;17.67;;;;;29.74;31.39;101332.97;4979060;28;45331;-81
2023/06/01 10:27:23;;;;;;;;;20.33;18.33;;;;;29.84;32.09;101376.97;4976023;28;46622;-78
2023/06/01 10:29:49;;;;;;;;;18.33;16.33;;;;;29.15;32.52;101351.94;4978113;28;45533;-78
2023/06/01 10:32:37;;;;;;;;;15.00;15.00;;;;;28.78;33.62;101395.41;4959005;28;45605;-80
2023/06/01 10:35:03;;;;;;;;;16.33;16.33;;;;;28.40;33.89;101377.81;4960423;28;45533;-82
2023/06/01 10:37:29;;;;;;;;;15.33;13.33;;;;;27.80;35.07;101341.94;4976298;28;45449;-79
2023/06/01 10:40:14;;;;;;;;;18.67;17.00;;;;;27.21;35.92;101305.75;4970140;28;45405;-82
2023/06/01 10:42:40;;;;;;;;;18.00;17.67;;;;;27.44;35.72;101373.16;4940875;28;46706;-79
2023/06/01 10:45:06;;;;;;;;;19.67;16.67;;;;;27.15;36.86;101374.97;4976250;28;45490;-78
2023/06/01 10:47:34;;;;;;;;;20.67;19.00;;;;;27.07;36.74;101367.97;4961844;28;46579;-79
2023/06/01 10:50:00;;;;;;;;;20.00;18.00;;;;;27.04;36.76;101367.63;4983022;28;45437;-78
2023/06/01 10:52:34;;;;;;;;;20.33;19.67;;;;;26.84;37.24;101352.41;4974628;28;45542;-80
2023/06/01 10:55:13;;;;;;;;;13.67;13.67;;;;;26.62;37.77;101364.94;4980151;28;45424;-81
2023/06/01 10:57:39;;;;;;;;;19.33;18.33;;;;;26.47;37.78;101345.50;4962451;28;45919;-80
2023/06/01 11:00:09;;;;;;;;;18.33;16.67;;;;;26.60;38.08;101372.53;4962168;28;45320;-80
2023/06/01 11:02:48;;;;;;;;;21.00;20.67;;;;;26.52;37.93;101353.78;4980282;28;45438;-80
2023/06/01 11:05:36;;;;;;;;;18.00;18.00;;;;;26.51;38.00;101363.03;4979512;28;45381;-81
2023/06/01 11:08:03;;;;;;;;;16.67;15.67;;;;;26.05;37.68;101280.06;4979211;28;46730;-79
2023/06/01 11:10:54;;;;;;;;;21.00;18.00;;;;;26.64;37.63;101357.38;4979460;28;45251;-81
2023/06/01 11:13:21;;;;;;;;;20.33;20.33;;;;;26.45;37.41;101339.44;4962269;28;45312;-81
2023/06/01 11:16:18;;;;;;;;;17.67;16.33;;;;;26.43;37.92;101355.19;4979454;28;45375;-79